createdAt,value
2023-02-02T00:01:56.485Z,3.70
2023-02-02T00:04:28.412Z,3.47
2023-02-02T00:06:57.921Z,4.00
2023-02-02T00:09:30.249Z,3.27
2023-02-02T00:12:00.605Z,3.83
2023-02-02T00:14:30.483Z,3.65
2023-02-02T00:17:00.262Z,3.27
2023-02-02T00:19:31.680Z,3.45
2023-02-02T00:22:01.103Z,3.15
2023-02-02T00:24:30.343Z,3.40
2023-02-02T00:27:01.590Z,3.45
2023-02-02T00:29:32.223Z,3.15
2023-02-02T00:32:01.566Z,3.45
2023-02-02T00:34:31.083Z,2.90
2023-02-02T00:37:00.360Z,3.45
2023-02-02T00:39:30.941Z,3.52
2023-02-02T00:42:00.211Z,3.75
2023-02-02T00:44:47.288Z,3.25
2023-02-02T00:47:17.971Z,3.45
2023-02-02T00:49:47.497Z,3.00
2023-02-02T00:52:16.808Z,3.42
2023-02-02T00:54:47.238Z,3.47
2023-02-02T00:57:16.804Z,3.98
2023-02-02T00:59:46.045Z,3.45
2023-02-02T01:02:15.454Z,3.40
2023-02-02T01:04:44.721Z,3.35
2023-02-02T01:07:13.955Z,3.77
2023-02-02T01:09:43.226Z,2.83
2023-02-02T01:12:12.549Z,3.37
2023-02-02T01:14:41.773Z,3.52
2023-02-02T01:17:11.356Z,3.58
2023-02-02T01:19:41.000Z,3.30
2023-02-02T01:22:10.674Z,3.40
2023-02-02T01:24:40.669Z,3.10
2023-02-02T01:27:10.060Z,3.02
2023-02-02T01:29:39.606Z,3.33
2023-02-02T01:32:09.007Z,3.20
2023-02-02T01:34:39.954Z,3.25
2023-02-02T01:37:10.138Z,3.77
2023-02-02T01:39:39.371Z,2.90
2023-02-02T01:42:16.254Z,3.15
2023-02-02T01:45:00.663Z,3.30
2023-02-02T01:47:33.582Z,3.30
2023-02-02T01:50:02.811Z,3.85
2023-02-02T01:52:33.693Z,3.92
2023-02-02T01:55:07.749Z,3.08
2023-02-02T01:57:43.382Z,3.90
2023-02-02T02:00:15.782Z,3.77
2023-02-02T02:02:47.657Z,3.47
2023-02-02T02:05:19.841Z,3.37
2023-02-02T02:07:50.830Z,3.33
2023-02-02T02:10:20.819Z,3.35
2023-02-02T02:12:50.850Z,3.40
2023-02-02T02:15:39.684Z,3.50
2023-02-02T02:18:25.153Z,3.50
2023-02-02T02:21:27.635Z,4.30
2023-02-02T02:24:49.473Z,3.35
2023-02-02T02:27:37.193Z,3.83
2023-02-02T02:30:21.417Z,3.50
2023-02-02T02:33:22.859Z,3.40
2023-02-02T02:35:59.547Z,3.27
2023-02-02T02:38:32.153Z,3.40
2023-02-02T02:41:05.094Z,3.60
2023-02-02T02:43:40.183Z,3.58
2023-02-02T02:46:10.933Z,3.87
2023-02-02T02:48:40.334Z,3.17
2023-02-02T02:51:44.675Z,3.27
2023-02-02T02:54:34.249Z,2.90
2023-02-02T02:57:24.772Z,3.75
2023-02-02T03:00:12.300Z,3.50
2023-02-02T03:02:48.206Z,3.67
2023-02-02T03:05:35.767Z,3.72
2023-02-02T03:08:28.058Z,3.40
2023-02-02T03:10:58.795Z,3.27
2023-02-02T03:13:28.968Z,3.87
2023-02-02T03:15:58.334Z,3.40
2023-02-02T03:18:29.901Z,3.05
2023-02-02T03:20:59.193Z,3.20
2023-02-02T03:23:29.088Z,3.55
2023-02-02T03:25:59.537Z,3.47
2023-02-02T03:28:29.133Z,3.22
2023-02-02T03:31:00.160Z,3.20
2023-02-02T03:33:30.827Z,3.72
2023-02-02T03:36:00.212Z,3.30
2023-02-02T03:38:29.453Z,3.80
2023-02-02T03:40:58.789Z,2.95
2023-02-02T03:43:28.061Z,3.85
2023-02-02T03:45:59.986Z,3.17
2023-02-02T03:48:29.187Z,3.00
2023-02-02T03:50:58.574Z,3.10
2023-02-02T03:53:28.071Z,2.92
2023-02-02T03:55:57.685Z,3.45
2023-02-02T03:58:26.904Z,3.02
2023-02-02T04:00:57.808Z,2.70
2023-02-02T04:03:27.007Z,2.83
2023-02-02T04:05:56.249Z,3.42
2023-02-02T04:08:25.484Z,3.00
2023-02-02T04:10:54.767Z,2.67
2023-02-02T04:13:24.592Z,2.42
2023-02-02T04:16:01.156Z,2.92
2023-02-02T04:18:31.194Z,2.83
2023-02-02T04:21:01.693Z,2.95
2023-02-02T04:23:31.522Z,2.90
2023-02-02T04:26:01.425Z,3.30
2023-02-02T04:28:30.840Z,3.10
2023-02-02T04:31:00.265Z,2.90
2023-02-02T04:33:29.929Z,3.02
2023-02-02T04:35:59.178Z,2.92
2023-02-02T04:38:28.542Z,2.72
2023-02-02T04:40:57.903Z,2.77
2023-02-02T04:43:27.095Z,2.40
2023-02-02T04:45:57.484Z,2.98
2023-02-02T04:48:26.848Z,3.00
2023-02-02T04:51:03.194Z,2.75
2023-02-02T04:53:32.463Z,3.30
2023-02-02T04:56:09.735Z,2.70
2023-02-02T04:58:39.328Z,3.10
2023-02-02T05:01:17.478Z,3.40
2023-02-02T05:03:47.727Z,3.20
2023-02-02T05:06:19.334Z,2.90
2023-02-02T05:08:49.374Z,2.70
2023-02-02T05:11:21.848Z,3.20
2023-02-02T05:13:53.209Z,3.02
2023-02-02T05:16:23.730Z,2.85
2023-02-02T05:18:54.540Z,2.67
2023-02-02T05:21:24.138Z,3.72
2023-02-02T05:23:53.341Z,3.05
2023-02-02T05:26:25.831Z,2.77
2023-02-02T05:31:24.063Z,3.35
2023-02-02T05:33:53.384Z,2.98
2023-02-02T05:36:22.854Z,3.20
2023-02-02T05:38:52.149Z,3.00
2023-02-02T05:41:21.388Z,4.37
2023-02-02T05:43:50.604Z,2.85
2023-02-02T05:46:20.230Z,2.67
2023-02-02T05:48:49.550Z,3.00
2023-02-02T05:51:24.800Z,3.25
2023-02-02T05:53:54.028Z,3.30
2023-02-02T05:56:23.418Z,2.92
2023-02-02T05:58:52.612Z,3.12
2023-02-02T06:01:22.477Z,3.17
2023-02-02T06:03:51.761Z,2.83
2023-02-02T06:06:21.565Z,2.75
2023-02-02T06:08:50.751Z,3.42
2023-02-02T06:11:20.884Z,2.98
2023-02-02T06:13:50.472Z,2.92
2023-02-02T06:16:19.981Z,3.10
2023-02-02T06:18:49.217Z,2.92
2023-02-02T06:21:20.086Z,2.77
2023-02-02T06:23:49.881Z,2.90
2023-02-02T06:26:19.704Z,3.15
2023-02-02T06:28:54.151Z,2.80
2023-02-02T06:31:23.903Z,3.08
2023-02-02T06:33:58.870Z,2.83
2023-02-02T06:36:29.659Z,3.55
2023-02-02T06:38:59.602Z,2.75
2023-02-02T06:41:28.900Z,3.40
2023-02-02T06:43:58.129Z,3.00
2023-02-02T06:46:27.668Z,3.30
2023-02-02T06:48:56.925Z,3.25
2023-02-02T06:51:26.510Z,3.05
2023-02-02T06:53:58.379Z,2.72
2023-02-02T06:56:26.972Z,2.87
2023-02-02T06:58:56.227Z,3.00
2023-02-02T07:01:25.854Z,2.87
2023-02-02T07:03:55.083Z,2.83
2023-02-02T07:06:26.546Z,2.77
2023-02-02T07:09:00.973Z,2.83
2023-02-02T07:11:27.763Z,3.58
2023-02-02T07:13:57.049Z,3.00
2023-02-02T07:16:26.351Z,3.20
2023-02-02T07:18:56.997Z,2.55
2023-02-02T07:21:29.371Z,2.80
2023-02-02T07:23:59.470Z,3.60
2023-02-02T07:26:30.006Z,3.35
2023-02-02T07:28:59.538Z,3.33
2023-02-02T07:31:29.789Z,3.30
2023-02-02T07:33:59.425Z,3.15
2023-02-02T07:36:28.871Z,3.45
2023-02-02T07:38:58.291Z,2.90
2023-02-02T07:41:28.042Z,3.10
2023-02-02T07:43:57.260Z,3.40
2023-02-02T07:46:26.775Z,3.83
2023-02-02T07:48:57.144Z,3.02
2023-02-02T07:51:27.308Z,3.62
2023-02-02T07:53:58.493Z,3.05
2023-02-02T07:56:29.237Z,2.52
2023-02-02T07:58:59.046Z,2.37
2023-02-02T08:01:29.518Z,2.83
2023-02-02T08:04:01.367Z,2.67
2023-02-02T08:06:33.191Z,3.02
2023-02-02T08:09:03.519Z,2.50
2023-02-02T08:11:33.367Z,2.40
2023-02-02T08:14:03.876Z,3.10
2023-02-02T08:16:34.132Z,2.42
2023-02-02T08:19:03.565Z,2.80
2023-02-02T08:21:35.896Z,2.35
2023-02-02T08:24:05.818Z,2.50
2023-02-02T08:26:35.389Z,2.58
2023-02-02T08:29:08.074Z,2.52
2023-02-02T08:31:41.842Z,2.50
2023-02-02T08:34:12.465Z,2.20
2023-02-02T08:36:42.057Z,2.25
2023-02-02T08:39:14.499Z,2.80
2023-02-02T08:44:15.138Z,2.37
2023-02-02T08:46:44.556Z,2.70
2023-02-02T08:49:15.263Z,2.52
2023-02-02T08:51:44.721Z,2.40
2023-02-02T08:54:14.466Z,3.02
2023-02-02T08:56:44.101Z,2.37
2023-02-02T08:59:13.487Z,2.52
2023-02-02T09:01:43.387Z,2.67
2023-02-02T09:04:17.065Z,2.70
2023-02-02T09:06:46.642Z,2.47
2023-02-02T09:09:17.131Z,2.62
2023-02-02T09:11:46.772Z,2.50
2023-02-02T09:14:16.061Z,2.50
2023-02-02T09:16:45.749Z,3.27
2023-02-02T09:19:15.075Z,2.60
2023-02-02T09:21:44.540Z,3.40
2023-02-02T09:24:15.069Z,2.12
2023-02-02T09:26:45.922Z,2.65
2023-02-02T09:29:18.043Z,2.52
2023-02-02T09:31:47.960Z,2.62
2023-02-02T09:34:17.680Z,2.80
2023-02-02T09:36:47.745Z,2.47
2023-02-02T09:39:18.472Z,2.95
2023-02-02T09:42:06.017Z,2.52
2023-02-02T09:44:38.637Z,3.30
2023-02-02T09:50:08.910Z,2.37
2023-02-02T09:52:46.799Z,3.25
2023-02-02T09:55:19.929Z,2.83
2023-02-02T09:57:51.840Z,3.12
2023-02-02T10:00:45.812Z,3.02
2023-02-02T10:03:24.465Z,2.42
2023-02-02T10:06:05.611Z,2.77
2023-02-02T10:08:38.010Z,3.40
2023-02-02T10:11:16.762Z,3.05
2023-02-02T10:13:48.735Z,2.58
2023-02-02T10:16:19.856Z,2.52
2023-02-02T10:19:01.174Z,3.27
2023-02-02T10:22:02.417Z,2.27
2023-02-02T10:24:35.243Z,2.52
2023-02-02T10:27:07.327Z,2.80
2023-02-02T10:29:54.566Z,2.33
2023-02-02T10:32:26.297Z,2.55
2023-02-02T10:35:12.948Z,2.60
2023-02-02T10:37:59.440Z,2.20
2023-02-02T10:40:46.842Z,2.40
2023-02-02T10:43:39.662Z,2.10
2023-02-02T10:46:12.658Z,2.10
2023-02-02T10:48:43.726Z,2.70
2023-02-02T10:51:29.906Z,2.40
2023-02-02T10:54:01.086Z,2.20
2023-02-02T10:56:38.994Z,2.92
2023-02-02T10:59:13.114Z,2.58
2023-02-02T11:01:42.948Z,2.98
2023-02-02T11:04:30.372Z,2.37
2023-02-02T11:07:01.641Z,2.37
2023-02-02T11:09:39.990Z,2.17
2023-02-02T11:12:30.922Z,2.37
2023-02-02T11:15:06.076Z,2.52
2023-02-02T11:17:35.934Z,2.80
2023-02-02T11:20:09.454Z,3.52
2023-02-02T11:22:40.264Z,3.10
2023-02-02T11:25:15.606Z,3.08
2023-02-02T11:27:46.672Z,3.02
2023-02-02T11:30:28.330Z,2.95
2023-02-02T11:32:57.894Z,2.70
2023-02-02T11:35:30.842Z,2.58
2023-02-02T11:38:03.489Z,2.52
2023-02-02T11:40:47.820Z,2.50
2023-02-02T11:43:20.226Z,4.47
2023-02-02T11:45:52.587Z,2.72
2023-02-02T11:48:24.054Z,2.92
2023-02-02T11:50:56.176Z,2.33
2023-02-02T11:53:45.677Z,2.77
2023-02-02T11:56:26.590Z,2.42
2023-02-02T11:58:58.511Z,2.65
2023-02-02T12:01:33.893Z,2.40
2023-02-02T12:04:05.184Z,2.33
2023-02-02T12:06:37.306Z,2.22
2023-02-02T12:09:21.927Z,2.55
2023-02-02T12:12:09.554Z,2.15
2023-02-02T12:15:09.284Z,2.25
2023-02-02T12:17:50.290Z,3.02
2023-02-02T12:20:45.096Z,2.30
2023-02-02T12:23:42.989Z,2.70
2023-02-02T12:26:30.434Z,2.50
2023-02-02T12:29:20.648Z,2.45
2023-02-02T12:32:25.259Z,4.28
2023-02-02T12:35:18.943Z,3.45
2023-02-02T12:38:06.337Z,2.83
2023-02-02T12:40:56.106Z,2.92
2023-02-02T12:43:34.455Z,3.12
2023-02-02T12:46:11.885Z,3.25
2023-02-02T12:48:50.161Z,2.98
2023-02-02T12:51:47.972Z,2.92
2023-02-02T12:54:44.379Z,3.12
2023-02-02T12:57:24.484Z,2.58
2023-02-02T13:00:08.726Z,2.62
2023-02-02T13:02:44.645Z,2.80
2023-02-02T13:05:48.985Z,3.52
2023-02-02T13:08:25.696Z,2.77
2023-02-02T13:10:58.308Z,3.08
2023-02-02T13:16:10.591Z,3.12
2023-02-02T13:18:49.591Z,3.10
2023-02-02T13:21:20.511Z,2.87
2023-02-02T13:23:55.627Z,3.00
2023-02-02T13:26:31.589Z,2.98
2023-02-02T13:29:27.484Z,2.58
2023-02-02T13:32:05.658Z,2.95
2023-02-02T13:34:43.661Z,2.83
2023-02-02T13:37:25.373Z,2.62
2023-02-02T13:40:00.753Z,2.85
2023-02-02T13:42:40.595Z,2.98
2023-02-02T13:45:18.593Z,2.65
2023-02-02T13:47:51.624Z,2.92
2023-02-02T13:50:22.104Z,3.35
2023-02-02T13:53:22.391Z,5.47
2023-02-02T13:56:09.782Z,4.28
2023-02-02T13:59:07.317Z,3.22
2023-02-02T14:01:36.921Z,3.67
2023-02-02T14:04:07.078Z,3.77
2023-02-02T14:06:48.231Z,3.45
2023-02-02T14:09:19.319Z,3.50
2023-02-02T14:12:00.389Z,3.83
2023-02-02T14:14:33.520Z,3.33
2023-02-02T14:17:19.172Z,3.65
2023-02-02T14:19:56.436Z,3.67
2023-02-02T14:22:48.430Z,3.85
2023-02-02T14:25:40.614Z,4.17
2023-02-02T14:28:14.392Z,3.70
2023-02-02T14:30:43.817Z,3.83
2023-02-02T14:33:25.826Z,4.20
2023-02-02T14:36:01.566Z,3.80
2023-02-02T14:38:40.414Z,4.53
2023-02-02T14:41:17.505Z,4.33
2023-02-02T14:43:51.295Z,4.25
2023-02-02T14:46:26.919Z,4.75
2023-02-02T14:48:59.396Z,4.83
2023-02-02T14:51:30.792Z,5.05
2023-02-02T14:54:02.782Z,4.83
2023-02-02T14:56:54.459Z,6.10
2023-02-02T14:59:26.375Z,4.95
2023-02-02T15:02:13.999Z,6.05
2023-02-02T15:04:43.630Z,4.87
2023-02-02T15:07:28.639Z,4.40
2023-02-02T15:09:58.123Z,5.03
2023-02-02T15:12:45.157Z,4.58
2023-02-02T15:15:17.802Z,4.62
2023-02-02T15:18:01.060Z,4.72
2023-02-02T15:20:33.581Z,4.72
2023-02-02T15:23:26.167Z,4.90
2023-02-02T15:26:16.414Z,4.70
2023-02-02T15:29:10.566Z,4.92
2023-02-02T15:31:50.140Z,5.55
2023-02-02T15:34:36.509Z,6.10
2023-02-02T15:37:08.399Z,5.60
2023-02-02T15:39:56.427Z,6.40
2023-02-02T15:42:53.116Z,7.55
2023-02-02T15:45:32.121Z,7.72
2023-02-02T15:48:04.079Z,7.45
2023-02-02T15:50:34.015Z,7.20
2023-02-02T15:53:03.311Z,6.85
2023-02-02T15:55:34.878Z,6.85
2023-02-02T15:58:06.583Z,6.80
2023-02-02T16:00:40.935Z,6.75
2023-02-02T16:03:21.074Z,5.80
2023-02-02T16:05:52.903Z,6.12
2023-02-02T16:08:36.342Z,9.28
2023-02-02T16:11:17.641Z,8.80
2023-02-02T16:14:01.794Z,6.62
2023-02-02T16:16:33.703Z,6.83
2023-02-02T16:19:06.936Z,5.45
2023-02-02T16:21:46.049Z,5.80
2023-02-02T16:24:22.076Z,5.87
2023-02-02T16:26:53.408Z,5.05
2023-02-02T16:29:23.306Z,4.80
2023-02-02T16:31:52.643Z,4.15
2023-02-02T16:34:41.993Z,4.95
2023-02-02T16:37:28.790Z,6.70
2023-02-02T16:40:00.529Z,5.25
2023-02-02T16:42:31.735Z,4.97
2023-02-02T16:45:01.701Z,4.30
2023-02-02T16:47:33.370Z,4.60
2023-02-02T16:50:29.499Z,5.47
2023-02-02T16:53:06.140Z,5.17
2023-02-02T16:55:49.775Z,5.87
2023-02-02T16:58:07.232Z,5.12
2023-02-02T17:00:37.030Z,5.80
2023-02-02T17:03:08.766Z,5.55
2023-02-02T17:05:49.924Z,5.55
2023-02-02T17:08:22.574Z,4.60
2023-02-02T17:11:03.131Z,4.10
2023-02-02T17:13:36.742Z,4.67
2023-02-02T17:16:06.220Z,4.30
2023-02-02T17:18:35.957Z,4.60
2023-02-02T17:21:07.686Z,4.25
2023-02-02T17:23:38.851Z,5.57
2023-02-02T17:26:10.053Z,5.08
2023-02-02T17:28:42.974Z,5.10
2023-02-02T17:31:14.874Z,5.55
2023-02-02T17:33:44.650Z,5.15
2023-02-02T17:36:14.925Z,4.87
2023-02-02T17:38:44.227Z,4.67
2023-02-02T17:41:14.419Z,5.30
2023-02-02T17:43:43.802Z,5.95
2023-02-02T17:46:16.465Z,5.42
2023-02-02T17:48:45.761Z,4.05
2023-02-02T17:51:18.768Z,4.28
2023-02-02T17:53:47.999Z,4.20
2023-02-02T17:56:17.974Z,3.67
2023-02-02T17:58:47.181Z,4.50
2023-02-02T18:01:16.527Z,4.28
2023-02-02T18:03:47.753Z,5.37
2023-02-02T18:06:17.304Z,4.50
2023-02-02T18:08:46.593Z,4.92
2023-02-02T18:11:16.308Z,4.97
2023-02-02T18:13:45.679Z,4.62
2023-02-02T18:16:15.210Z,5.35
2023-02-02T18:18:44.424Z,4.75
2023-02-02T18:21:14.442Z,4.67
2023-02-02T18:23:43.700Z,4.42
2023-02-02T18:26:18.219Z,5.17
2023-02-02T18:28:50.983Z,3.65
2023-02-02T18:31:24.108Z,4.72
2023-02-02T18:33:54.560Z,6.20
2023-02-02T18:36:23.989Z,6.03
2023-02-02T18:38:54.133Z,5.12
2023-02-02T18:41:23.605Z,4.37
2023-02-02T18:43:55.283Z,5.53
2023-02-02T18:46:26.577Z,5.10
2023-02-02T18:48:56.934Z,5.42
2023-02-02T18:51:26.614Z,4.30
2023-02-02T18:53:57.599Z,5.50
2023-02-02T18:56:28.418Z,4.53
2023-02-02T18:58:59.623Z,5.60
2023-02-02T19:01:29.206Z,6.20
2023-02-02T19:03:58.798Z,5.12
2023-02-02T19:06:42.574Z,4.05
2023-02-02T19:09:13.866Z,5.15
2023-02-02T19:11:46.280Z,5.03
2023-02-02T19:14:19.083Z,4.08
2023-02-02T19:16:49.929Z,4.50
2023-02-02T19:19:33.464Z,6.00
2023-02-02T19:22:06.137Z,6.80
2023-02-02T19:24:40.670Z,7.10
2023-02-02T19:27:18.412Z,4.87
2023-02-02T19:29:51.108Z,5.95
2023-02-02T19:32:23.471Z,4.42
2023-02-02T19:35:01.880Z,4.65
2023-02-02T19:37:33.167Z,5.35
2023-02-02T19:40:13.132Z,4.00
2023-02-02T19:42:57.648Z,5.30
2023-02-02T19:45:33.305Z,4.70
2023-02-02T19:48:06.009Z,6.50
2023-02-02T19:50:41.299Z,8.73
2023-02-02T19:53:23.440Z,8.33
2023-02-02T19:55:53.630Z,4.92
2023-02-02T19:58:29.881Z,6.05
2023-02-02T20:00:59.646Z,4.10
2023-02-02T20:03:31.375Z,5.35
2023-02-02T20:06:01.471Z,6.07
2023-02-02T20:08:36.805Z,4.25
2023-02-02T20:11:27.431Z,5.20
2023-02-02T20:13:56.911Z,4.50
2023-02-02T20:16:27.457Z,4.47
2023-02-02T20:18:58.605Z,4.45
2023-02-02T20:21:39.904Z,5.00
2023-02-02T20:24:27.263Z,4.03
2023-02-02T20:27:02.909Z,6.47
2023-02-02T20:29:41.243Z,4.75
2023-02-02T20:32:16.707Z,3.80
2023-02-02T20:34:46.348Z,4.72
2023-02-02T20:37:18.766Z,5.05
2023-02-02T20:39:56.879Z,4.75
2023-02-02T20:42:26.789Z,4.00
2023-02-02T20:44:58.115Z,4.22
2023-02-02T20:47:27.645Z,3.87
2023-02-02T20:49:58.597Z,3.77
2023-02-02T20:52:29.625Z,4.25
2023-02-02T20:54:58.862Z,4.95
2023-02-02T20:57:28.196Z,3.75
2023-02-02T20:59:57.471Z,3.62
2023-02-02T21:02:28.068Z,3.10
2023-02-02T21:04:57.344Z,3.75
2023-02-02T21:07:27.043Z,3.70
2023-02-02T21:09:56.335Z,3.17
2023-02-02T21:12:26.118Z,4.78
2023-02-02T21:14:55.749Z,3.50
2023-02-02T21:17:25.499Z,3.40
2023-02-02T21:19:54.757Z,3.08
2023-02-02T21:22:24.279Z,3.72
2023-02-02T21:24:54.805Z,4.03
2023-02-02T21:27:24.256Z,3.35
2023-02-02T21:29:53.554Z,3.08
2023-02-02T21:32:23.593Z,4.00
2023-02-02T21:34:52.812Z,3.75
2023-02-02T21:37:22.078Z,4.17
2023-02-02T21:39:53.075Z,5.00
2023-02-02T21:42:24.206Z,3.55
2023-02-02T21:45:01.740Z,3.77
2023-02-02T21:47:36.500Z,3.37
2023-02-02T21:50:20.426Z,4.00
2023-02-02T21:52:49.682Z,4.08
2023-02-02T21:55:28.172Z,3.90
2023-02-02T21:57:59.413Z,4.65
2023-02-02T22:00:34.582Z,3.72
2023-02-02T22:03:04.187Z,3.58
2023-02-02T22:05:37.749Z,3.65
2023-02-02T22:08:12.866Z,4.05
2023-02-02T22:10:46.428Z,2.90
2023-02-02T22:13:23.950Z,3.45
2023-02-02T22:15:55.238Z,3.87
2023-02-02T22:18:26.371Z,3.98
2023-02-02T22:20:56.789Z,4.20
2023-02-02T22:23:28.340Z,3.70
2023-02-02T22:25:59.444Z,3.75
2023-02-02T22:28:42.461Z,4.03
2023-02-02T22:31:12.020Z,3.08
2023-02-02T22:33:41.363Z,3.05
2023-02-02T22:36:10.859Z,3.45
2023-02-02T22:38:40.530Z,3.77
2023-02-02T22:41:10.143Z,3.85
2023-02-02T22:43:39.354Z,4.28
2023-02-02T22:46:08.631Z,4.33
2023-02-02T22:48:37.898Z,4.00
2023-02-02T22:51:07.203Z,3.47
2023-02-02T22:53:36.414Z,4.17
2023-02-02T22:56:06.433Z,3.00
2023-02-02T22:58:35.695Z,3.70
2023-02-02T23:01:05.053Z,3.70
2023-02-02T23:03:34.361Z,4.17
2023-02-02T23:06:03.630Z,3.17
2023-02-02T23:08:33.982Z,3.50
2023-02-02T23:11:03.306Z,4.17
2023-02-02T23:13:32.935Z,3.58
2023-02-02T23:16:02.258Z,3.30
2023-02-02T23:18:31.770Z,3.60
2023-02-02T23:21:00.991Z,3.60
2023-02-02T23:23:30.505Z,3.75
2023-02-02T23:25:59.722Z,3.22
2023-02-02T23:28:29.171Z,3.52
2023-02-02T23:30:59.372Z,4.47
2023-02-02T23:33:28.806Z,3.65
2023-02-02T23:35:58.005Z,3.37
2023-02-02T23:38:27.458Z,3.60
2023-02-02T23:40:56.680Z,3.40
2023-02-02T23:43:26.574Z,3.05
2023-02-02T23:45:55.949Z,3.15
2023-02-02T23:48:25.328Z,3.30
2023-02-02T23:50:54.759Z,3.33
2023-02-02T23:53:24.996Z,3.60
2023-02-02T23:55:54.913Z,3.15
2023-02-02T23:58:24.139Z,3.25
